Terminal Aerodrome Forecast
Issued by NWS Brownsville, TX

Home | Current Version | Previous Version | Text Only | Print | Product List | Glossary On
Versions: 1 2 3 4 5 6 7 8 9 10 11 12 13 14 15 16 17
000
FTUS44 KBRO 011720
TAFBRO
TAF
KBRO 011720Z 0118/0218 08012G20KT P6SM FEW020 SCT030 BKN035
     FM011900 10012G20KT P6SM VCTS BKN030CB
      TEMPO 0119/0122 4SM TSRA BKN025CB
     FM020000 11014G20KT P6SM BKN040
     FM020300 11010KT P6SM SCT030
     FM021500 09010G16KT P6SM FEW025=

USA.gov is the U.S. government's official web portal to all federal, state and local government web resources and services.